sensor_id;sensor_type;location;lat;lon;timestamp;pressure;altitude;pressure_sealevel;temperature;humidity
79612;BME280;69094;48.154;11.536;2023-08-07T00:02:01;95211.91;;;11.46;68.55
79612;BME280;69094;48.154;11.536;2023-08-07T00:04:26;95217.69;;;11.44;68.60
79612;BME280;69094;48.154;11.536;2023-08-07T00:06:52;95205.78;;;11.36;68.84
79612;BME280;69094;48.154;11.536;2023-08-07T00:09:17;95203.72;;;11.33;68.99
79612;BME280;69094;48.154;11.536;2023-08-07T00:11:42;95215.63;;;11.29;69.17
79612;BME280;69094;48.154;11.536;2023-08-07T00:14:08;95207.00;;;11.27;69.66
79612;BME280;69094;48.154;11.536;2023-08-07T00:16:33;95226.28;;;11.21;69.92
79612;BME280;69094;48.154;11.536;2023-08-07T00:18:58;95231.72;;;11.21;69.77
79612;BME280;69094;48.154;11.536;2023-08-07T00:21:24;95230.81;;;11.17;69.81
79612;BME280;69094;48.154;11.536;2023-08-07T00:23:49;95221.06;;;11.16;69.66
79612;BME280;69094;48.154;11.536;2023-08-07T00:26:15;95229.44;;;11.11;70.29
79612;BME280;69094;48.154;11.536;2023-08-07T00:28:41;95220.47;;;11.11;70.59
79612;BME280;69094;48.154;11.536;2023-08-07T00:31:06;95230.34;;;11.03;71.23
79612;BME280;69094;48.154;11.536;2023-08-07T00:33:32;95224.75;;;10.99;71.80
79612;BME280;69094;48.154;11.536;2023-08-07T00:35:57;95225.97;;;10.90;71.86
79612;BME280;69094;48.154;11.536;2023-08-07T00:38:22;95226.75;;;10.90;71.90
79612;BME280;69094;48.154;11.536;2023-08-07T00:40:48;95229.34;;;10.87;72.76
79612;BME280;69094;48.154;11.536;2023-08-07T00:43:13;95224.59;;;10.84;72.01
79612;BME280;69094;48.154;11.536;2023-08-07T00:45:43;95230.25;;;10.78;73.23
79612;BME280;69094;48.154;11.536;2023-08-07T00:48:09;95217.38;;;10.67;73.93
79612;BME280;69094;48.154;11.536;2023-08-07T00:50:34;95228.31;;;10.58;75.22
79612;BME280;69094;48.154;11.536;2023-08-07T00:53:00;95228.41;;;10.49;75.33
79612;BME280;69094;48.154;11.536;2023-08-07T00:55:26;95241.16;;;10.37;77.22
79612;BME280;69094;48.154;11.536;2023-08-07T00:57:52;95233.97;;;10.32;77.61
79612;BME280;69094;48.154;11.536;2023-08-07T01:00:18;95230.00;;;10.29;78.48
79612;BME280;69094;48.154;11.536;2023-08-07T01:02:44;95233.75;;;10.16;78.56
79612;BME280;69094;48.154;11.536;2023-08-07T01:05:09;95238.91;;;10.09;79.76
79612;BME280;69094;48.154;11.536;2023-08-07T01:07:34;95242.94;;;10.03;79.83
79612;BME280;69094;48.154;11.536;2023-08-07T01:10:00;95239.41;;;10.02;80.65
79612;BME280;69094;48.154;11.536;2023-08-07T01:12:46;95231.78;;;9.96;80.88
79612;BME280;69094;48.154;11.536;2023-08-07T01:15:16;95237.22;;;9.96;81.33
79612;BME280;69094;48.154;11.536;2023-08-07T01:17:44;95220.81;;;9.83;81.12
79612;BME280;69094;48.154;11.536;2023-08-07T01:20:11;95228.66;;;9.85;81.44
79612;BME280;69094;48.154;11.536;2023-08-07T01:22:36;95228.97;;;9.83;82.02
79612;BME280;69094;48.154;11.536;2023-08-07T01:25:02;95237.97;;;9.75;82.37
79612;BME280;69094;48.154;11.536;2023-08-07T01:27:35;95250.09;;;9.78;82.06
79612;BME280;69094;48.154;11.536;2023-08-07T01:30:19;95246.13;;;9.75;82.41
79612;BME280;69094;48.154;11.536;2023-08-07T01:32:53;95255.72;;;9.73;82.28
79612;BME280;69094;48.154;11.536;2023-08-07T01:35:22;95245.16;;;9.71;82.20
79612;BME280;69094;48.154;11.536;2023-08-07T01:37:52;95250.16;;;9.69;82.75
79612;BME280;69094;48.154;11.536;2023-08-07T01:40:20;95245.06;;;9.59;82.94
79612;BME280;69094;48.154;11.536;2023-08-07T01:42:46;95249.19;;;9.65;82.70
79612;BME280;69094;48.154;11.536;2023-08-07T01:45:12;95244.94;;;9.55;82.79
79612;BME280;69094;48.154;11.536;2023-08-07T01:47:37;95253.88;;;9.56;83.67
79612;BME280;69094;48.154;11.536;2023-08-07T01:50:03;95255.66;;;9.52;83.30
79612;BME280;69094;48.154;11.536;2023-08-07T01:52:29;95252.13;;;9.51;83.45
79612;BME280;69094;48.154;11.536;2023-08-07T01:54:55;95252.78;;;9.48;83.38
79612;BME280;69094;48.154;11.536;2023-08-07T01:57:20;95257.72;;;9.46;82.87
79612;BME280;69094;48.154;11.536;2023-08-07T01:59:45;95256.16;;;9.45;83.61
79612;BME280;69094;48.154;11.536;2023-08-07T02:02:11;95254.22;;;9.45;83.10
79612;BME280;69094;48.154;11.536;2023-08-07T02:04:36;95263.97;;;9.46;82.89
79612;BME280;69094;48.154;11.536;2023-08-07T02:07:02;95265.09;;;9.45;82.75
79612;BME280;69094;48.154;11.536;2023-08-07T02:09:27;95263.50;;;9.44;82.93
79612;BME280;69094;48.154;11.536;2023-08-07T02:11:53;95261.41;;;9.41;83.40
79612;BME280;69094;48.154;11.536;2023-08-07T02:14:18;95264.47;;;9.40;83.16
79612;BME280;69094;48.154;11.536;2023-08-07T02:16:43;95268.78;;;9.41;83.22
79612;BME280;69094;48.154;11.536;2023-08-07T02:19:09;95276.28;;;9.44;83.13
79612;BME280;69094;48.154;11.536;2023-08-07T02:21:34;95281.38;;;9.45;83.37
79612;BME280;69094;48.154;11.536;2023-08-07T02:23:59;95274.22;;;9.41;83.91
79612;BME280;69094;48.154;11.536;2023-08-07T02:26:25;95273.09;;;9.42;83.25
79612;BME280;69094;48.154;11.536;2023-08-07T02:28:50;95270.69;;;9.49;82.68
79612;BME280;69094;48.154;11.536;2023-08-07T02:31:15;95278.00;;;9.48;82.87
79612;BME280;69094;48.154;11.536;2023-08-07T02:33:41;95268.75;;;9.49;82.34
79612;BME280;69094;48.154;11.536;2023-08-07T02:36:07;95276.06;;;9.58;82.87
79612;BME280;69094;48.154;11.536;2023-08-07T02:38:32;95284.03;;;9.63;82.94
79612;BME280;69094;48.154;11.536;2023-08-07T02:40:58;95300.16;;;9.68;81.99
79612;BME280;69094;48.154;11.536;2023-08-07T02:43:23;95295.38;;;9.65;81.66
79612;BME280;69094;48.154;11.536;2023-08-07T02:45:48;95301.97;;;9.64;82.00
79612;BME280;69094;48.154;11.536;2023-08-07T02:48:14;95296.84;;;9.62;82.33
79612;BME280;69094;48.154;11.536;2023-08-07T02:50:39;95285.78;;;9.67;81.96
79612;BME280;69094;48.154;11.536;2023-08-07T02:53:05;95299.06;;;9.69;81.39
79612;BME280;69094;48.154;11.536;2023-08-07T02:55:30;95282.41;;;9.70;80.51
79612;BME280;69094;48.154;11.536;2023-08-07T02:57:55;95288.63;;;9.71;80.66
79612;BME280;69094;48.154;11.536;2023-08-07T03:00:21;95285.91;;;9.71;80.66
79612;BME280;69094;48.154;11.536;2023-08-07T03:02:47;95291.34;;;9.80;79.94
79612;BME280;69094;48.154;11.536;2023-08-07T03:05:12;95301.88;;;9.81;80.26
79612;BME280;69094;48.154;11.536;2023-08-07T03:07:37;95302.81;;;9.85;79.64
79612;BME280;69094;48.154;11.536;2023-08-07T03:10:03;95292.91;;;9.89;78.76
79612;BME280;69094;48.154;11.536;2023-08-07T03:12:29;95288.56;;;9.88;79.29
79612;BME280;69094;48.154;11.536;2023-08-07T03:14:54;95303.75;;;9.89;79.49
79612;BME280;69094;48.154;11.536;2023-08-07T03:17:20;95284.63;;;9.77;79.31
79612;BME280;69094;48.154;11.536;2023-08-07T03:19:45;95297.19;;;9.90;78.99
79612;BME280;69094;48.154;11.536;2023-08-07T03:22:11;95313.03;;;9.88;79.17
79612;BME280;69094;48.154;11.536;2023-08-07T03:24:37;95297.66;;;9.92;78.20
79612;BME280;69094;48.154;11.536;2023-08-07T03:27:02;95306.28;;;9.95;78.49
79612;BME280;69094;48.154;11.536;2023-08-07T03:29:28;95301.34;;;9.97;78.12
79612;BME280;69094;48.154;11.536;2023-08-07T03:31:53;95303.41;;;10.00;78.37
79612;BME280;69094;48.154;11.536;2023-08-07T03:34:19;95306.13;;;10.00;77.87
79612;BME280;69094;48.154;11.536;2023-08-07T03:36:44;95301.16;;;10.02;77.11
79612;BME280;69094;48.154;11.536;2023-08-07T03:39:10;95304.19;;;10.00;77.73
79612;BME280;69094;48.154;11.536;2023-08-07T03:41:37;95285.50;;;9.99;76.61
79612;BME280;69094;48.154;11.536;2023-08-07T03:44:02;95313.09;;;10.09;77.04
79612;BME280;69094;48.154;11.536;2023-08-07T03:46:28;95316.63;;;10.10;76.47
79612;BME280;69094;48.154;11.536;2023-08-07T03:48:53;95316.94;;;10.08;76.54
79612;BME280;69094;48.154;11.536;2023-08-07T03:51:18;95320.00;;;10.07;76.33
79612;BME280;69094;48.154;11.536;2023-08-07T03:53:44;95308.47;;;10.10;76.11
79612;BME280;69094;48.154;11.536;2023-08-07T03:56:09;95315.94;;;10.13;75.63
79612;BME280;69094;48.154;11.536;2023-08-07T03:58:35;95323.00;;;10.14;75.53
79612;BME280;69094;48.154;11.536;2023-08-07T04:01:00;95313.22;;;10.13;76.08
79612;BME280;69094;48.154;11.536;2023-08-07T04:03:25;95317.41;;;10.10;75.21
79612;BME280;69094;48.154;11.536;2023-08-07T04:05:52;95312.13;;;10.14;75.51
79612;BME280;69094;48.154;11.536;2023-08-07T04:08:19;95334.78;;;10.18;75.11
79612;BME280;69094;48.154;11.536;2023-08-07T04:10:44;95333.34;;;10.21;75.33
79612;BME280;69094;48.154;11.536;2023-08-07T04:13:09;95336.88;;;10.21;75.03
79612;BME280;69094;48.154;11.536;2023-08-07T04:15:35;95328.91;;;10.16;75.47
79612;BME280;69094;48.154;11.536;2023-08-07T04:18:00;95333.69;;;10.19;74.72
79612;BME280;69094;48.154;11.536;2023-08-07T04:20:26;95318.44;;;10.27;73.77
79612;BME280;69094;48.154;11.536;2023-08-07T04:22:51;95331.25;;;10.26;74.23
79612;BME280;69094;48.154;11.536;2023-08-07T04:25:17;95330.13;;;10.27;73.92
79612;BME280;69094;48.154;11.536;2023-08-07T04:27:42;95335.56;;;10.27;74.16
79612;BME280;69094;48.154;11.536;2023-08-07T04:30:08;95333.81;;;10.31;73.08
79612;BME280;69094;48.154;11.536;2023-08-07T04:32:33;95330.44;;;10.34;71.88
79612;BME280;69094;48.154;11.536;2023-08-07T04:34:59;95328.03;;;10.33;71.92
79612;BME280;69094;48.154;11.536;2023-08-07T04:37:24;95330.91;;;10.37;71.93
79612;BME280;69094;48.154;11.536;2023-08-07T04:39:50;95337.13;;;10.37;71.57
79612;BME280;69094;48.154;11.536;2023-08-07T04:42:15;95345.63;;;10.35;72.32
79612;BME280;69094;48.154;11.536;2023-08-07T04:44:40;95323.66;;;10.41;72.07
79612;BME280;69094;48.154;11.536;2023-08-07T04:47:06;95356.13;;;10.46;71.70
79612;BME280;69094;48.154;11.536;2023-08-07T04:49:31;95353.88;;;10.48;71.41
79612;BME280;69094;48.154;11.536;2023-08-07T04:51:56;95351.78;;;10.53;71.58
79612;BME280;69094;48.154;11.536;2023-08-07T04:54:21;95355.94;;;10.51;71.60
79612;BME280;69094;48.154;11.536;2023-08-07T04:56:47;95364.44;;;10.49;71.54
79612;BME280;69094;48.154;11.536;2023-08-07T04:59:12;95340.81;;;10.41;70.77
79612;BME280;69094;48.154;11.536;2023-08-07T05:01:38;95356.59;;;10.48;70.61
79612;BME280;69094;48.154;11.536;2023-08-07T05:04:04;95369.09;;;10.49;70.85
79612;BME280;69094;48.154;11.536;2023-08-07T05:06:30;95369.44;;;10.68;69.95
79612;BME280;69094;48.154;11.536;2023-08-07T05:08:56;95357.31;;;10.66;70.36
79612;BME280;69094;48.154;11.536;2023-08-07T05:11:21;95353.28;;;10.63;69.38
79612;BME280;69094;48.154;11.536;2023-08-07T05:13:46;95362.47;;;10.59;69.46
79612;BME280;69094;48.154;11.536;2023-08-07T05:16:12;95371.72;;;10.57;69.65
79612;BME280;69094;48.154;11.536;2023-08-07T05:18:37;95368.09;;;10.53;70.52
79612;BME280;69094;48.154;11.536;2023-08-07T05:21:03;95376.25;;;10.53;69.70
79612;BME280;69094;48.154;11.536;2023-08-07T05:23:28;95374.13;;;10.59;70.48
79612;BME280;69094;48.154;11.536;2023-08-07T05:25:53;95380.97;;;10.65;69.26
79612;BME280;69094;48.154;11.536;2023-08-07T05:28:19;95381.44;;;10.67;69.25
79612;BME280;69094;48.154;11.536;2023-08-07T05:30:44;95381.44;;;10.67;69.02
79612;BME280;69094;48.154;11.536;2023-08-07T05:33:09;95381.78;;;10.66;69.28
79612;BME280;69094;48.154;11.536;2023-08-07T05:35:37;95376.66;;;10.64;68.62
79612;BME280;69094;48.154;11.536;2023-08-07T05:38:02;95380.50;;;10.63;69.05
79612;BME280;69094;48.154;11.536;2023-08-07T05:40:28;95387.69;;;10.68;68.38
79612;BME280;69094;48.154;11.536;2023-08-07T05:42:55;95395.25;;;10.62;68.88
79612;BME280;69094;48.154;11.536;2023-08-07T05:45:20;95400.56;;;10.59;68.81
79612;BME280;69094;48.154;11.536;2023-08-07T05:47:45;95400.56;;;10.59;68.35
79612;BME280;69094;48.154;11.536;2023-08-07T05:50:11;95410.03;;;10.52;68.29
79612;BME280;69094;48.154;11.536;2023-08-07T05:52:36;95395.91;;;10.59;68.45
79612;BME280;69094;48.154;11.536;2023-08-07T05:55:02;95416.22;;;10.62;68.65
79612;BME280;69094;48.154;11.536;2023-08-07T05:57:28;95391.75;;;10.53;68.64
79612;BME280;69094;48.154;11.536;2023-08-07T05:59:53;95414.25;;;10.71;68.37
79612;BME280;69094;48.154;11.536;2023-08-07T06:02:19;95417.97;;;10.66;68.42
79612;BME280;69094;48.154;11.536;2023-08-07T06:04:44;95415.72;;;10.68;68.28
79612;BME280;69094;48.154;11.536;2023-08-07T06:07:10;95407.88;;;10.67;68.48
79612;BME280;69094;48.154;11.536;2023-08-07T06:09:36;95420.69;;;10.66;67.91
79612;BME280;69094;48.154;11.536;2023-08-07T06:12:01;95414.75;;;10.64;68.14
79612;BME280;69094;48.154;11.536;2023-08-07T06:14:26;95419.34;;;10.72;68.04
79612;BME280;69094;48.154;11.536;2023-08-07T06:16:52;95416.63;;;10.72;67.89
79612;BME280;69094;48.154;11.536;2023-08-07T06:19:17;95407.81;;;10.75;67.50
79612;BME280;69094;48.154;11.536;2023-08-07T06:21:43;95422.69;;;10.78;67.02
79612;BME280;69094;48.154;11.536;2023-08-07T06:24:09;95417.84;;;10.84;67.36
79612;BME280;69094;48.154;11.536;2023-08-07T06:26:34;95438.03;;;10.83;66.80
79612;BME280;69094;48.154;11.536;2023-08-07T06:28:59;95430.59;;;10.92;66.88
79612;BME280;69094;48.154;11.536;2023-08-07T06:31:25;95423.19;;;11.01;66.66
79612;BME280;69094;48.154;11.536;2023-08-07T06:33:50;95430.19;;;11.11;66.04
79612;BME280;69094;48.154;11.536;2023-08-07T06:36:15;95435.22;;;11.21;65.93
79612;BME280;69094;48.154;11.536;2023-08-07T06:38:41;95432.34;;;11.17;65.78
79612;BME280;69094;48.154;11.536;2023-08-07T06:41:06;95435.69;;;11.23;65.38
79612;BME280;69094;48.154;11.536;2023-08-07T06:43:31;95426.91;;;11.17;65.10
79612;BME280;69094;48.154;11.536;2023-08-07T06:45:58;95430.75;;;11.37;64.42
79612;BME280;69094;48.154;11.536;2023-08-07T06:48:24;95426.34;;;11.45;64.64
79612;BME280;69094;48.154;11.536;2023-08-07T06:50:50;95437.53;;;11.52;64.55
79612;BME280;69094;48.154;11.536;2023-08-07T06:53:16;95422.91;;;11.57;63.70
79612;BME280;69094;48.154;11.536;2023-08-07T06:55:42;95437.09;;;11.50;63.70
79612;BME280;69094;48.154;11.536;2023-08-07T06:58:08;95416.88;;;11.51;63.37
79612;BME280;69094;48.154;11.536;2023-08-07T07:00:33;95433.06;;;11.69;63.08
79612;BME280;69094;48.154;11.536;2023-08-07T07:03:00;95443.44;;;12.09;61.65
79612;BME280;69094;48.154;11.536;2023-08-07T07:05:26;95438.91;;;12.13;61.26
79612;BME280;69094;48.154;11.536;2023-08-07T07:07:51;95440.19;;;12.27;60.93
79612;BME280;69094;48.154;11.536;2023-08-07T07:10:17;95453.97;;;12.56;60.51
79612;BME280;69094;48.154;11.536;2023-08-07T07:12:42;95450.69;;;12.75;59.35
79612;BME280;69094;48.154;11.536;2023-08-07T07:15:08;95445.56;;;12.98;57.92
79612;BME280;69094;48.154;11.536;2023-08-07T07:17:34;95448.72;;;13.24;57.17
79612;BME280;69094;48.154;11.536;2023-08-07T07:19:59;95459.19;;;13.10;57.98
79612;BME280;69094;48.154;11.536;2023-08-07T07:22:25;95460.06;;;13.26;56.06
79612;BME280;69094;48.154;11.536;2023-08-07T07:24:51;95470.75;;;13.44;55.48
79612;BME280;69094;48.154;11.536;2023-08-07T07:27:16;95476.47;;;13.26;55.91
79612;BME280;69094;48.154;11.536;2023-08-07T07:29:41;95469.91;;;13.27;56.51
79612;BME280;69094;48.154;11.536;2023-08-07T07:32:07;95467.78;;;13.49;55.20
79612;BME280;69094;48.154;11.536;2023-08-07T07:34:33;95481.38;;;13.45;55.40
79612;BME280;69094;48.154;11.536;2023-08-07T07:36:58;95479.81;;;13.72;55.11
79612;BME280;69094;48.154;11.536;2023-08-07T07:39:24;95483.38;;;13.61;55.27
79612;BME280;69094;48.154;11.536;2023-08-07T07:41:49;95488.13;;;13.64;55.50
79612;BME280;69094;48.154;11.536;2023-08-07T07:44:14;95495.50;;;13.47;55.86
79612;BME280;69094;48.154;11.536;2023-08-07T07:46:40;95481.59;;;13.40;55.87
79612;BME280;69094;48.154;11.536;2023-08-07T07:49:05;95496.44;;;13.27;56.52
79612;BME280;69094;48.154;11.536;2023-08-07T07:51:31;95474.19;;;13.16;56.18
79612;BME280;69094;48.154;11.536;2023-08-07T07:53:57;95493.94;;;13.09;56.17
79612;BME280;69094;48.154;11.536;2023-08-07T07:56:23;95509.25;;;13.02;57.35
79612;BME280;69094;48.154;11.536;2023-08-07T07:58:48;95480.50;;;13.04;57.04
79612;BME280;69094;48.154;11.536;2023-08-07T08:01:13;95510.19;;;13.06;57.19
79612;BME280;69094;48.154;11.536;2023-08-07T08:03:39;95505.28;;;12.99;56.56
79612;BME280;69094;48.154;11.536;2023-08-07T08:06:04;95502.78;;;12.94;57.78
79612;BME280;69094;48.154;11.536;2023-08-07T08:08:30;95541.59;;;12.87;58.02
79612;BME280;69094;48.154;11.536;2023-08-07T08:10:55;95530.19;;;12.73;58.36
79612;BME280;69094;48.154;11.536;2023-08-07T08:13:21;95517.56;;;12.68;59.02
79612;BME280;69094;48.154;11.536;2023-08-07T08:15:47;95512.78;;;12.53;58.98
79612;BME280;69094;48.154;11.536;2023-08-07T08:18:13;95527.34;;;12.57;58.17
79612;BME280;69094;48.154;11.536;2023-08-07T08:20:38;95533.69;;;12.61;59.18
79612;BME280;69094;48.154;11.536;2023-08-07T08:23:04;95531.34;;;12.72;58.47
79612;BME280;69094;48.154;11.536;2023-08-07T08:25:31;95521.47;;;12.80;57.44
79612;BME280;69094;48.154;11.536;2023-08-07T08:27:58;95514.38;;;12.79;57.96
79612;BME280;69094;48.154;11.536;2023-08-07T08:30:24;95533.03;;;12.77;58.23
79612;BME280;69094;48.154;11.536;2023-08-07T08:32:49;95532.47;;;12.71;58.86
79612;BME280;69094;48.154;11.536;2023-08-07T08:35:15;95526.72;;;12.97;58.31
79612;BME280;69094;48.154;11.536;2023-08-07T08:37:40;95527.81;;;12.96;57.87
79612;BME280;69094;48.154;11.536;2023-08-07T08:40:07;95529.06;;;12.86;57.72
79612;BME280;69094;48.154;11.536;2023-08-07T08:42:33;95542.72;;;12.99;57.54
79612;BME280;69094;48.154;11.536;2023-08-07T08:45:00;95541.59;;;12.87;58.00
79612;BME280;69094;48.154;11.536;2023-08-07T08:47:26;95543.53;;;12.75;58.35
79612;BME280;69094;48.154;11.536;2023-08-07T08:50:01;95543.63;;;12.78;58.30
79612;BME280;69094;48.154;11.536;2023-08-07T08:52:28;95539.75;;;12.79;58.11
79612;BME280;69094;48.154;11.536;2023-08-07T08:54:56;95545.13;;;13.00;57.23
79612;BME280;69094;48.154;11.536;2023-08-07T08:57:22;95560.97;;;13.19;55.99
79612;BME280;69094;48.154;11.536;2023-08-07T08:59:48;95558.69;;;13.21;56.38
79612;BME280;69094;48.154;11.536;2023-08-07T09:02:14;95547.66;;;13.30;56.51
79612;BME280;69094;48.154;11.536;2023-08-07T09:04:40;95553.22;;;13.46;55.88
79612;BME280;69094;48.154;11.536;2023-08-07T09:07:07;95550.16;;;13.47;55.47
79612;BME280;69094;48.154;11.536;2023-08-07T09:09:33;95556.66;;;13.30;55.32
79612;BME280;69094;48.154;11.536;2023-08-07T09:11:58;95559.50;;;13.22;55.87
79612;BME280;69094;48.154;11.536;2023-08-07T09:14:27;95573.75;;;13.27;56.09
79612;BME280;69094;48.154;11.536;2023-08-07T09:16:58;95558.00;;;13.12;56.91
79612;BME280;69094;48.154;11.536;2023-08-07T09:19:25;95567.56;;;13.18;57.70
79612;BME280;69094;48.154;11.536;2023-08-07T09:21:51;95557.88;;;13.21;57.08
79612;BME280;69094;48.154;11.536;2023-08-07T09:24:16;95558.00;;;13.12;57.51
79612;BME280;69094;48.154;11.536;2023-08-07T09:26:43;95559.41;;;13.30;57.53
79612;BME280;69094;48.154;11.536;2023-08-07T09:29:09;95555.63;;;13.35;57.28
79612;BME280;69094;48.154;11.536;2023-08-07T09:31:36;95562.34;;;13.38;56.96
79612;BME280;69094;48.154;11.536;2023-08-07T09:34:03;95562.44;;;13.53;56.20
79612;BME280;69094;48.154;11.536;2023-08-07T09:36:33;95565.31;;;13.45;57.08
79612;BME280;69094;48.154;11.536;2023-08-07T09:39:02;95562.78;;;13.64;56.43
79612;BME280;69094;48.154;11.536;2023-08-07T09:41:29;95573.03;;;13.67;55.83
79612;BME280;69094;48.154;11.536;2023-08-07T09:43:55;95554.31;;;13.82;54.84
79612;BME280;69094;48.154;11.536;2023-08-07T09:46:21;95569.63;;;13.98;54.99
79612;BME280;69094;48.154;11.536;2023-08-07T09:48:47;95564.25;;;14.14;54.14
79612;BME280;69094;48.154;11.536;2023-08-07T09:51:13;95562.91;;;14.36;53.81
79612;BME280;69094;48.154;11.536;2023-08-07T09:53:38;95569.16;;;14.37;53.68
79612;BME280;69094;48.154;11.536;2023-08-07T09:56:04;95566.38;;;14.49;53.30
79612;BME280;69094;48.154;11.536;2023-08-07T09:58:31;95552.53;;;14.58;54.12
79612;BME280;69094;48.154;11.536;2023-08-07T10:01:02;95563.03;;;14.84;53.60
79612;BME280;69094;48.154;11.536;2023-08-07T10:03:28;95565.50;;;15.05;53.28
79612;BME280;69094;48.154;11.536;2023-08-07T10:05:54;95563.66;;;14.93;52.74
79612;BME280;69094;48.154;11.536;2023-08-07T10:08:21;95553.22;;;14.99;53.16
79612;BME280;69094;48.154;11.536;2023-08-07T10:10:47;95540.84;;;15.21;51.46
79612;BME280;69094;48.154;11.536;2023-08-07T10:13:13;95559.00;;;15.61;50.55
79612;BME280;69094;48.154;11.536;2023-08-07T10:15:39;95570.63;;;15.89;50.52
79612;BME280;69094;48.154;11.536;2023-08-07T10:18:07;95551.56;;;16.16;48.71
79612;BME280;69094;48.154;11.536;2023-08-07T10:20:32;95558.78;;;16.63;47.41
79612;BME280;69094;48.154;11.536;2023-08-07T10:23:07;95555.72;;;16.68;47.19
79612;BME280;69094;48.154;11.536;2023-08-07T10:25:34;95556.50;;;17.61;45.65
79612;BME280;69094;48.154;11.536;2023-08-07T10:28:01;95554.03;;;18.39;43.00
79612;BME280;69094;48.154;11.536;2023-08-07T10:30:29;95554.28;;;18.61;42.00
79612;BME280;69094;48.154;11.536;2023-08-07T10:32:54;95558.50;;;17.87;44.06
79612;BME280;69094;48.154;11.536;2023-08-07T10:35:25;95552.53;;;17.58;44.29
79612;BME280;69094;48.154;11.536;2023-08-07T10:37:51;95551.81;;;17.88;43.76
79612;BME280;69094;48.154;11.536;2023-08-07T10:40:18;95554.38;;;18.34;42.83
79612;BME280;69094;48.154;11.536;2023-08-07T10:45:18;95544.59;;;18.06;43.70
79612;BME280;69094;48.154;11.536;2023-08-07T10:48:02;95540.78;;;18.18;42.51
79612;BME280;69094;48.154;11.536;2023-08-07T10:50:31;95539.25;;;19.33;40.03
79612;BME280;69094;48.154;11.536;2023-08-07T10:53:00;95534.59;;;20.03;38.33
79612;BME280;69094;48.154;11.536;2023-08-07T10:55:26;95535.72;;;19.95;38.22
79612;BME280;69094;48.154;11.536;2023-08-07T10:57:53;95521.03;;;18.80;40.81
79612;BME280;69094;48.154;11.536;2023-08-07T11:00:25;95529.97;;;17.76;42.88
79612;BME280;69094;48.154;11.536;2023-08-07T11:02:52;95522.56;;;18.06;41.85
79612;BME280;69094;48.154;11.536;2023-08-07T11:05:17;95531.53;;;18.03;41.95
79612;BME280;69094;48.154;11.536;2023-08-07T11:07:43;95530.09;;;17.83;42.80
79612;BME280;69094;48.154;11.536;2023-08-07T11:10:12;95527.44;;;17.63;44.02
79612;BME280;69094;48.154;11.536;2023-08-07T11:12:38;95518.16;;;17.72;43.58
79612;BME280;69094;48.154;11.536;2023-08-07T11:15:04;95516.78;;;17.85;42.02
79612;BME280;69094;48.154;11.536;2023-08-07T11:17:29;95513.97;;;18.12;41.86
79612;BME280;69094;48.154;11.536;2023-08-07T11:19:55;95522.44;;;18.67;41.30
79612;BME280;69094;48.154;11.536;2023-08-07T11:22:21;95519.59;;;18.56;41.12
79612;BME280;69094;48.154;11.536;2023-08-07T11:24:46;95522.94;;;17.78;42.63
79612;BME280;69094;48.154;11.536;2023-08-07T11:27:12;95512.59;;;17.15;43.77
79612;BME280;69094;48.154;11.536;2023-08-07T11:29:37;95521.38;;;16.78;45.35
79612;BME280;69094;48.154;11.536;2023-08-07T11:32:03;95525.41;;;16.42;47.26
79612;BME280;69094;48.154;11.536;2023-08-07T11:34:28;95535.25;;;16.23;47.56
79612;BME280;69094;48.154;11.536;2023-08-07T11:36:54;95543.69;;;16.14;47.69
79612;BME280;69094;48.154;11.536;2023-08-07T11:39:20;95540.81;;;15.88;46.99
79612;BME280;69094;48.154;11.536;2023-08-07T11:41:46;95535.75;;;15.39;47.26
79612;BME280;69094;48.154;11.536;2023-08-07T11:44:12;95540.47;;;15.38;47.49
79612;BME280;69094;48.154;11.536;2023-08-07T11:46:37;95541.66;;;15.57;47.30
79612;BME280;69094;48.154;11.536;2023-08-07T11:49:04;95548.16;;;15.84;47.10
79612;BME280;69094;48.154;11.536;2023-08-07T11:51:29;95543.34;;;16.16;46.46
79612;BME280;69094;48.154;11.536;2023-08-07T11:53:55;95542.59;;;16.39;45.61
79612;BME280;69094;48.154;11.536;2023-08-07T11:56:24;95530.63;;;16.27;45.52
79612;BME280;69094;48.154;11.536;2023-08-07T11:58:51;95547.88;;;16.47;45.66
79612;BME280;69094;48.154;11.536;2023-08-07T12:01:18;95547.84;;;17.09;44.05
79612;BME280;69094;48.154;11.536;2023-08-07T12:03:55;95554.13;;;17.10;43.92
79612;BME280;69094;48.154;11.536;2023-08-07T12:06:21;95545.75;;;17.26;43.85
79612;BME280;69094;48.154;11.536;2023-08-07T12:08:49;95558.97;;;18.57;40.58
79612;BME280;69094;48.154;11.536;2023-08-07T12:11:18;95560.66;;;20.09;37.47
79612;BME280;69094;48.154;11.536;2023-08-07T12:13:45;95556.13;;;20.53;35.90
79612;BME280;69094;48.154;11.536;2023-08-07T12:16:11;95565.78;;;21.20;34.89
79612;BME280;69094;48.154;11.536;2023-08-07T12:18:47;95564.00;;;19.70;37.57
79612;BME280;69094;48.154;11.536;2023-08-07T12:21:14;95559.75;;;18.91;39.39
79612;BME280;69094;48.154;11.536;2023-08-07T12:23:40;95558.91;;;19.79;37.08
79612;BME280;69094;48.154;11.536;2023-08-07T12:26:06;95566.59;;;19.08;38.13
79612;BME280;69094;48.154;11.536;2023-08-07T12:28:33;95572.28;;;18.85;38.92
79612;BME280;69094;48.154;11.536;2023-08-07T12:30:59;95568.56;;;18.36;39.51
79612;BME280;69094;48.154;11.536;2023-08-07T12:33:33;95571.97;;;17.96;39.86
79612;BME280;69094;48.154;11.536;2023-08-07T12:36:00;95561.25;;;17.87;40.48
79612;BME280;69094;48.154;11.536;2023-08-07T12:38:26;95567.69;;;17.72;40.69
79612;BME280;69094;48.154;11.536;2023-08-07T12:40:52;95573.66;;;18.04;40.04
79612;BME280;69094;48.154;11.536;2023-08-07T12:43:18;95564.56;;;18.00;39.18
79612;BME280;69094;48.154;11.536;2023-08-07T12:45:43;95573.53;;;17.43;40.59
79612;BME280;69094;48.154;11.536;2023-08-07T12:48:09;95571.22;;;17.22;41.55
79612;BME280;69094;48.154;11.536;2023-08-07T12:50:35;95574.16;;;17.10;42.46